Time;durP1;ratioP1;P1;durP2;ratioP2;P2;SDS_P1;SDS_P2;PMS_P1;PMS_P2;Temp;Humidity;BMP_temperature;BMP_pressure;BME280_temperature;BME280_humidity;BME280_pressure;Samples;Min_cycle;Max_cycle;Signal;HPM_P1;HPM_P2
2021/09/27 00:00:59;;;;;;;16.08;8.13;;;20.40;99.90;;;;;;4975552;28;20035;-75
2021/09/27 00:03:27;;;;;;;14.73;8.30;;;20.40;99.90;;;;;;4975523;28;20023;-74
2021/09/27 00:05:53;;;;;;;14.50;8.30;;;20.40;99.90;;;;;;4975303;28;20059;-74
2021/09/27 00:08:19;;;;;;;16.13;8.90;;;20.40;99.90;;;;;;4975060;28;20408;-75
2021/09/27 00:10:50;;;;;;;14.90;8.68;;;20.30;99.90;;;;;;4974900;28;20516;-75
2021/09/27 00:13:18;;;;;;;13.30;8.50;;;20.30;99.90;;;;;;4974834;28;20038;-75
2021/09/27 00:15:49;;;;;;;12.82;9.13;;;20.20;99.90;;;;;;4975362;28;20509;-75
2021/09/27 00:18:16;;;;;;;14.73;8.27;;;20.20;99.90;;;;;;4974826;28;20061;-74
2021/09/27 00:20:49;;;;;;;11.95;8.48;;;20.20;99.90;;;;;;4974898;28;20072;-75
2021/09/27 00:23:15;;;;;;;14.88;9.13;;;20.20;99.90;;;;;;4974684;28;20034;-75
2021/09/27 00:25:41;;;;;;;11.88;8.45;;;20.10;99.90;;;;;;4974009;28;20447;-75
2021/09/27 00:28:07;;;;;;;16.30;8.65;;;20.10;99.90;;;;;;4974510;28;20065;-74
2021/09/27 00:30:34;;;;;;;19.63;12.35;;;20.10;99.90;;;;;;4974164;28;20453;-75
2021/09/27 00:32:59;;;;;;;19.13;10.68;;;20.00;99.90;;;;;;4974523;28;20096;-76
2021/09/27 00:35:29;;;;;;;14.10;8.98;;;20.00;99.90;;;;;;4972356;28;20529;-75
2021/09/27 00:37:55;;;;;;;16.77;10.13;;;20.00;99.90;;;;;;4974740;28;20075;-75
2021/09/27 00:40:30;;;;;;;18.83;9.93;;;20.00;99.90;;;;;;4973587;28;20038;-75
2021/09/27 00:42:56;;;;;;;20.63;10.10;;;20.00;99.90;;;;;;4974959;28;20023;-75
2021/09/27 00:45:27;;;;;;;14.55;9.95;;;20.00;99.90;;;;;;4974626;28;20039;-74
2021/09/27 00:47:52;;;;;;;16.65;10.50;;;20.00;99.90;;;;;;4974561;28;20158;-75
2021/09/27 00:50:22;;;;;;;15.32;10.07;;;20.10;99.90;;;;;;4974409;28;20121;-75
2021/09/27 00:52:48;;;;;;;18.77;10.32;;;20.00;99.90;;;;;;4974426;28;20035;-75
2021/09/27 00:55:18;;;;;;;16.80;9.48;;;20.10;99.90;;;;;;4974189;28;20473;-75
2021/09/27 00:57:44;;;;;;;17.17;8.95;;;20.10;99.90;;;;;;4974883;28;20030;-76
2021/09/27 01:00:13;;;;;;;21.60;10.48;;;20.00;99.90;;;;;;4974205;28;20035;-75
2021/09/27 01:02:39;;;;;;;19.63;10.60;;;19.90;99.90;;;;;;4974394;28;20027;-76
2021/09/27 01:05:09;;;;;;;20.95;11.00;;;19.90;99.90;;;;;;4974209;28;20046;-76
2021/09/27 01:07:56;;;;;;;16.08;10.48;;;19.90;99.90;;;;;;4974201;28;20023;-76
2021/09/27 01:10:59;;;;;;;21.85;10.68;;;19.90;99.90;;;;;;4973850;28;20628;-75
2021/09/27 01:14:16;;;;;;;14.00;10.70;;;19.90;99.90;;;;;;4973794;28;20034;-75
2021/09/27 01:17:23;;;;;;;19.83;11.48;;;19.80;99.90;;;;;;4991424;28;20543;-75
2021/09/27 01:20:15;;;;;;;19.10;10.60;;;19.80;99.90;;;;;;4975961;28;20117;-76
2021/09/27 01:23:08;;;;;;;18.70;10.63;;;19.80;99.90;;;;;;4973860;28;20030;-75
2021/09/27 01:25:51;;;;;;;19.10;11.30;;;19.80;99.90;;;;;;4973608;28;20031;-73
2021/09/27 01:28:34;;;;;;;19.95;11.57;;;19.80;99.90;;;;;;4973359;28;20027;-75
2021/09/27 01:31:33;;;;;;;21.88;12.27;;;19.80;99.90;;;;;;4974007;28;20038;-75
2021/09/27 01:34:09;;;;;;;21.65;12.52;;;19.80;99.90;;;;;;4973804;28;20038;-75
2021/09/27 01:36:57;;;;;;;19.33;11.88;;;19.80;99.90;;;;;;4988380;28;20089;-74
2021/09/27 01:39:45;;;;;;;;;;;19.80;99.90;;;;;;4993253;28;20044;-76
2021/09/27 01:42:15;;;;;;;19.38;11.75;;;19.80;99.90;;;;;;4989675;28;20352;-75
2021/09/27 01:44:50;;;;;;;16.90;11.40;;;19.70;99.90;;;;;;4992793;28;20193;-75
2021/09/27 01:47:29;;;;;;;21.27;11.38;;;19.70;99.90;;;;;;4992631;28;20109;-74
2021/09/27 01:50:17;;;;;;;20.23;11.75;;;19.80;99.90;;;;;;4992786;28;20027;-74
2021/09/27 01:53:01;;;;;;;17.38;11.55;;;19.80;99.90;;;;;;4992880;28;20034;-73
2021/09/27 01:55:43;;;;;;;20.00;11.95;;;19.80;99.90;;;;;;4988984;28;20034;-74
2021/09/27 01:58:23;;;;;;;20.15;12.07;;;19.80;99.90;;;;;;4974246;28;20401;-73
2021/09/27 02:00:59;;;;;;;20.52;12.88;;;19.80;99.90;;;;;;4993069;28;20034;-74
2021/09/27 02:03:35;;;;;;;18.83;12.18;;;19.80;99.90;;;;;;4992390;28;20089;-75
2021/09/27 02:06:44;;;;;;;20.95;12.80;;;19.70;99.90;;;;;;4992782;28;20031;-74
2021/09/27 02:09:17;;;;;;;19.25;12.18;;;19.80;99.90;;;;;;4991983;28;20065;-74
2021/09/27 02:11:47;;;;;;;17.48;12.73;;;19.80;99.90;;;;;;4992294;28;20058;-73
2021/09/27 02:14:37;;;;;;;16.13;12.18;;;19.70;99.90;;;;;;4992343;28;20429;-75
2021/09/27 02:17:15;;;;;;;22.05;13.68;;;19.70;99.90;;;;;;4992413;28;20093;-75
2021/09/27 02:19:47;;;;;;;;;;;19.70;99.90;;;;;;4992665;28;20085;-74
2021/09/27 02:22:19;;;;;;;18.45;12.13;;;19.60;99.90;;;;;;4992173;28;19906;-75
2021/09/27 02:24:48;;;;;;;20.15;11.35;;;19.70;99.90;;;;;;4992893;28;20034;-76
2021/09/27 02:27:16;;;;;;;19.38;12.35;;;19.70;99.90;;;;;;4992278;28;20030;-75
2021/09/27 02:29:42;;;;;;;19.83;11.82;;;19.70;99.90;;;;;;4991929;28;20043;-75
2021/09/27 02:32:29;;;;;;;22.90;12.38;;;19.80;99.90;;;;;;4991848;28;20393;-75
2021/09/27 02:35:23;;;;;;;24.52;12.98;;;19.80;99.90;;;;;;4992366;28;20039;-75
2021/09/27 02:38:13;;;;;;;21.60;12.23;;;19.80;99.90;;;;;;4992330;28;20479;-74
2021/09/27 02:40:51;;;;;;;24.05;11.85;;;19.80;99.90;;;;;;4991921;28;20069;-75
2021/09/27 02:43:17;;;;;;;17.60;12.38;;;19.70;99.90;;;;;;4991924;28;20109;-75
2021/09/27 02:45:45;;;;;;;17.05;11.05;;;19.70;99.90;;;;;;4992392;28;20393;-75
2021/09/27 02:48:14;;;;;;;;;;;19.70;99.90;;;;;;4992656;28;20031;-75
2021/09/27 02:50:47;;;;;;;19.90;11.23;;;19.70;99.90;;;;;;4991716;28;19914;-76
2021/09/27 02:53:14;;;;;;;16.73;11.82;;;19.70;99.90;;;;;;4991830;28;20030;-76
2021/09/27 02:55:59;;;;;;;19.10;12.10;;;19.60;99.90;;;;;;4991709;28;20041;-76
2021/09/27 02:58:39;;;;;;;18.65;11.82;;;19.60;99.90;;;;;;4992196;28;20026;-75
2021/09/27 03:01:17;;;;;;;17.20;11.88;;;19.70;99.90;;;;;;4995929;28;20081;-76
2021/09/27 03:04:10;;;;;;;22.95;11.82;;;19.60;99.90;;;;;;4996235;28;20018;-76
2021/09/27 03:06:35;;;;;;;18.02;11.45;;;19.60;99.90;;;;;;4995873;28;20118;-75
2021/09/27 03:09:14;;;;;;;19.13;11.70;;;19.60;99.90;;;;;;4995556;28;20177;-75
2021/09/27 03:11:52;;;;;;;18.50;11.60;;;19.60;99.90;;;;;;4995518;28;20034;-75
2021/09/27 03:14:20;;;;;;;25.38;12.15;;;19.60;99.90;;;;;;4995626;28;20034;-75
2021/09/27 03:17:14;;;;;;;17.77;11.32;;;19.60;99.90;;;;;;4995619;28;20421;-75
2021/09/27 03:20:01;;;;;;;18.00;12.80;;;19.60;99.90;;;;;;4995466;28;20073;-75
2021/09/27 03:22:46;;;;;;;16.73;12.03;;;19.60;99.90;;;;;;4995613;28;20053;-74
2021/09/27 03:25:49;;;;;;;19.95;12.02;;;19.60;99.90;;;;;;4995578;28;20066;-74
2021/09/27 03:28:23;;;;;;;17.60;12.25;;;19.60;99.90;;;;;;4995392;28;20026;-74
2021/09/27 03:31:02;;;;;;;19.10;12.40;;;19.60;99.90;;;;;;4995718;28;20038;-75
2021/09/27 03:33:36;;;;;;;18.58;11.82;;;19.60;99.90;;;;;;4995183;28;20034;-74
2021/09/27 03:36:23;;;;;;;18.80;11.68;;;19.60;99.90;;;;;;4995366;28;20035;-73
2021/09/27 03:39:01;;;;;;;19.65;11.82;;;19.50;99.90;;;;;;4994010;28;20034;-74
2021/09/27 03:41:37;;;;;;;13.07;10.05;;;19.60;99.90;;;;;;4995070;28;20042;-74
2021/09/27 03:44:36;;;;;;;14.93;11.02;;;19.60;99.90;;;;;;4993993;28;20372;-74
2021/09/27 03:47:22;;;;;;;15.88;11.18;;;19.60;99.90;;;;;;4994308;28;20361;-77
2021/09/27 03:49:51;;;;;;;19.85;12.90;;;19.50;99.90;;;;;;4994995;28;20105;-75
2021/09/27 03:52:32;;;;;;;17.45;10.55;;;19.50;99.90;;;;;;4994963;28;20072;-75
2021/09/27 03:55:12;;;;;;;14.93;11.18;;;19.60;99.90;;;;;;4995520;28;20121;-75
2021/09/27 03:57:47;;;;;;;17.63;10.63;;;19.50;99.90;;;;;;4995082;28;20043;-76
2021/09/27 04:00:20;;;;;;;14.07;10.00;;;19.50;99.90;;;;;;4994876;28;20090;-75
2021/09/27 04:02:59;;;;;;;15.77;10.82;;;19.50;99.90;;;;;;4993909;28;20047;-76
2021/09/27 04:05:52;;;;;;;18.80;10.93;;;19.50;99.90;;;;;;4993848;28;20026;-75
2021/09/27 04:08:40;;;;;;;16.20;10.13;;;19.50;99.90;;;;;;4994782;28;20045;-75
2021/09/27 04:11:21;;;;;;;21.70;11.05;;;19.50;99.90;;;;;;4993427;28;20125;-76
2021/09/27 04:14:18;;;;;;;18.15;10.88;;;19.50;99.90;;;;;;4993405;28;20508;-76
2021/09/27 04:17:13;;;;;;;18.08;11.60;;;19.50;99.90;;;;;;4993355;28;20038;-76
2021/09/27 04:20:09;;;;;;;17.10;11.55;;;19.50;99.90;;;;;;4994254;28;20038;-75
2021/09/27 04:23:05;;;;;;;21.25;11.50;;;19.50;99.90;;;;;;4994799;28;20566;-75
2021/09/27 04:25:54;;;;;;;19.50;11.95;;;19.50;99.90;;;;;;4994108;28;20026;-75
2021/09/27 04:28:41;;;;;;;18.58;12.35;;;19.40;99.90;;;;;;4994476;28;20516;-77
2021/09/27 04:31:14;;;;;;;20.33;12.50;;;19.40;99.90;;;;;;4994396;28;20400;-75
2021/09/27 04:33:58;;;;;;;17.70;12.35;;;19.50;99.90;;;;;;4994598;28;20042;-76
2021/09/27 04:36:29;;;;;;;22.33;12.35;;;19.40;99.90;;;;;;4994147;28;20041;-77
2021/09/27 04:39:01;;;;;;;19.75;12.25;;;19.40;99.90;;;;;;4993795;28;20354;-75
2021/09/27 04:41:47;;;;;;;22.60;14.23;;;19.40;99.90;;;;;;4994046;28;20031;-76
2021/09/27 04:44:36;;;;;;;19.13;12.23;;;19.40;99.90;;;;;;4993418;28;20489;-75
2021/09/27 04:47:20;;;;;;;21.48;13.40;;;19.40;99.90;;;;;;4993917;28;20038;-74
2021/09/27 04:49:52;;;;;;;23.67;13.65;;;19.40;99.90;;;;;;4993860;28;20038;-75
2021/09/27 04:52:36;;;;;;;19.50;13.48;;;19.30;99.90;;;;;;4993819;28;20403;-75
2021/09/27 04:55:17;;;;;;;19.95;13.40;;;19.30;99.90;;;;;;4993521;28;20031;-74
2021/09/27 04:57:55;;;;;;;18.67;14.20;;;19.30;99.90;;;;;;4957621;28;20031;-76
2021/09/27 05:00:44;;;;;;;18.75;13.15;;;19.30;99.90;;;;;;4993064;28;20034;-76
2021/09/27 05:03:27;;;;;;;20.95;13.88;;;19.30;99.90;;;;;;4992559;28;20093;-76
2021/09/27 05:05:56;;;;;;;23.15;14.18;;;19.30;99.90;;;;;;4993590;28;20026;-77
2021/09/27 05:08:57;;;;;;;21.15;14.35;;;19.30;99.90;;;;;;4992504;28;20042;-76
2021/09/27 05:11:44;;;;;;;23.70;14.70;;;19.30;99.90;;;;;;4993705;28;20377;-76
2021/09/27 05:14:34;;;;;;;27.13;14.82;;;19.30;99.90;;;;;;4993423;28;20027;-75
2021/09/27 05:17:19;;;;;;;23.70;14.57;;;19.30;99.90;;;;;;4993227;28;20456;-75
2021/09/27 05:20:17;;;;;;;22.17;15.50;;;19.30;99.90;;;;;;4992277;28;20609;-75
2021/09/27 05:22:54;;;;;;;32.97;14.00;;;19.30;99.90;;;;;;4992479;28;20064;-76
2021/09/27 05:25:20;;;;;;;21.92;14.63;;;19.30;99.90;;;;;;4993119;28;20428;-76
2021/09/27 05:28:18;;;;;;;24.63;15.98;;;19.40;99.90;;;;;;4993419;28;20023;-76
2021/09/27 05:31:09;;;;;;;21.77;14.57;;;19.30;99.90;;;;;;4992935;28;20524;-77
2021/09/27 05:33:49;;;;;;;22.85;15.10;;;19.40;99.90;;;;;;4993053;28;20034;-76
2021/09/27 05:36:30;;;;;;;21.63;15.43;;;19.40;99.90;;;;;;4993066;28;20106;-76
2021/09/27 05:39:24;;;;;;;26.88;15.20;;;19.40;99.90;;;;;;4992808;28;20089;-77
2021/09/27 05:42:06;;;;;;;24.25;15.80;;;19.40;99.90;;;;;;4992372;28;20045;-76
2021/09/27 05:44:46;;;;;;;23.50;15.75;;;19.40;99.90;;;;;;4991138;28;20639;-74
2021/09/27 05:47:25;;;;;;;24.30;15.55;;;19.40;99.90;;;;;;4985131;28;20039;-74
2021/09/27 05:50:10;;;;;;;29.02;14.73;;;19.40;99.90;;;;;;4973264;28;20038;-74
2021/09/27 05:53:03;;;;;;;19.23;13.70;;;19.40;99.90;;;;;;4973062;28;20051;-75
2021/09/27 05:55:37;;;;;;;19.80;14.48;;;19.40;99.90;;;;;;4973051;28;20381;-76
2021/09/27 05:58:12;;;;;;;22.55;14.60;;;19.30;99.90;;;;;;4972770;28;20027;-75
2021/09/27 06:00:44;;;;;;;23.38;15.40;;;19.30;99.90;;;;;;4972118;28;20257;-76
2021/09/27 06:03:21;;;;;;;22.75;14.98;;;19.30;99.90;;;;;;4973221;28;20034;-75
2021/09/27 06:05:52;;;;;;;24.00;14.27;;;19.30;99.90;;;;;;4971951;28;20031;-78
2021/09/27 06:08:33;;;;;;;23.90;15.18;;;19.20;99.90;;;;;;4973063;28;20098;-74
2021/09/27 06:11:38;;;;;;;24.92;15.70;;;19.20;99.90;;;;;;4971434;28;20070;-74
2021/09/27 06:14:04;;;;;;;26.75;15.93;;;19.20;99.90;;;;;;4972877;28;20089;-78
2021/09/27 06:16:47;;;;;;;22.80;15.45;;;19.20;99.90;;;;;;4973028;28;20466;-77
2021/09/27 06:19:29;;;;;;;25.92;14.88;;;19.20;99.90;;;;;;4972916;28;20085;-78
2021/09/27 06:22:04;;;;;;;25.38;15.32;;;19.10;99.90;;;;;;4973648;28;20102;-78
2021/09/27 06:24:34;;;;;;;24.95;15.10;;;19.10;99.90;;;;;;4972966;28;20142;-77
2021/09/27 06:27:14;;;;;;;41.15;26.92;;;19.10;99.90;;;;;;4972458;28;20027;-76
2021/09/27 06:30:06;;;;;;;30.50;17.73;;;19.20;99.90;;;;;;4972221;28;20122;-79
2021/09/27 06:33:03;;;;;;;25.92;17.85;;;19.20;99.90;;;;;;4972265;28;20031;-72
2021/09/27 06:35:34;;;;;;;32.83;17.73;;;19.20;99.90;;;;;;4972202;28;20066;-74
2021/09/27 06:38:03;;;;;;;28.15;18.42;;;19.20;99.90;;;;;;4971236;28;20126;-80
2021/09/27 06:40:29;;;;;;;31.20;19.77;;;19.20;99.90;;;;;;4972512;28;20042;-76
2021/09/27 06:42:55;;;;;;;24.55;15.43;;;19.10;99.90;;;;;;4972374;28;20031;-79
2021/09/27 06:45:21;;;;;;;21.70;14.65;;;19.20;99.90;;;;;;4971493;28;20477;-73
2021/09/27 06:47:47;;;;;;;23.20;14.95;;;19.20;99.90;;;;;;4972078;28;20135;-74
2021/09/27 06:50:12;;;;;;;20.92;14.88;;;19.20;99.90;;;;;;4971952;28;20051;-72
2021/09/27 06:52:38;;;;;;;27.63;16.05;;;19.20;99.90;;;;;;4971944;28;20057;-71
2021/09/27 06:55:06;;;;;;;24.42;15.80;;;19.20;99.90;;;;;;4971930;28;20065;-72
2021/09/27 06:57:32;;;;;;;;;;;19.20;99.90;;;;;;4972635;28;20063;-71
2021/09/27 06:59:57;;;;;;;26.73;15.65;;;19.30;99.90;;;;;;4972103;28;20000;-71
2021/09/27 07:02:23;;;;;;;26.27;15.77;;;19.30;99.90;;;;;;4971845;28;20042;-73
2021/09/27 07:04:51;;;;;;;26.23;15.77;;;19.40;99.90;;;;;;4971848;28;20126;-71
2021/09/27 07:07:17;;;;;;;23.33;15.90;;;19.40;99.90;;;;;;4971950;28;20166;-71
2021/09/27 07:09:42;;;;;;;26.77;15.77;;;19.40;99.90;;;;;;4972079;28;20073;-72
2021/09/27 07:12:10;;;;;;;23.67;15.02;;;19.40;99.90;;;;;;4971822;28;20501;-71
2021/09/27 07:14:37;;;;;;;25.95;16.67;;;19.40;99.90;;;;;;4971835;28;20409;-72
2021/09/27 07:17:02;;;;;;;23.20;15.15;;;19.50;99.90;;;;;;4971899;28;20050;-71
2021/09/27 07:19:28;;;;;;;24.83;16.27;;;19.50;99.90;;;;;;4971795;28;20042;-71
2021/09/27 07:21:54;;;;;;;31.75;19.55;;;19.40;99.90;;;;;;4971894;28;20035;-72
2021/09/27 07:24:20;;;;;;;29.63;18.17;;;19.40;99.90;;;;;;4971766;28;20035;-75
2021/09/27 07:26:46;;;;;;;24.30;16.10;;;19.50;99.90;;;;;;4971756;28;20031;-76
2021/09/27 07:29:11;;;;;;;18.45;13.75;;;19.50;99.90;;;;;;4971917;28;20222;-76
2021/09/27 07:31:37;;;;;;;21.85;14.68;;;19.50;99.90;;;;;;4971717;28;20121;-75
2021/09/27 07:34:07;;;;;;;22.80;14.70;;;19.60;99.90;;;;;;4971873;28;20061;-75
2021/09/27 07:36:33;;;;;;;22.65;14.88;;;19.70;99.90;;;;;;4972233;28;20122;-75
2021/09/27 07:38:59;;;;;;;22.88;14.98;;;19.70;99.90;;;;;;4971483;28;20089;-75
2021/09/27 07:41:25;;;;;;;26.98;14.32;;;19.80;99.90;;;;;;4970600;28;20031;-75
2021/09/27 07:43:51;;;;;;;26.83;14.50;;;19.80;99.90;;;;;;4971575;28;20034;-74
2021/09/27 07:46:18;;;;;;;23.05;14.00;;;19.90;99.90;;;;;;4974665;28;20035;-70
2021/09/27 07:48:45;;;;;;;24.13;15.55;;;19.90;99.90;;;;;;4974579;28;20023;-73
2021/09/27 07:51:11;;;;;;;23.63;14.68;;;19.90;99.90;;;;;;4974923;28;20042;-71
2021/09/27 07:53:36;;;;;;;23.63;14.88;;;19.90;99.90;;;;;;4974762;28;20093;-75
2021/09/27 07:56:02;;;;;;;24.25;14.65;;;19.90;99.90;;;;;;4974821;28;20073;-74
2021/09/27 07:58:27;;;;;;;26.42;15.85;;;19.90;99.90;;;;;;4974981;28;20031;-75
2021/09/27 08:00:53;;;;;;;23.85;14.13;;;20.00;99.90;;;;;;4975304;28;20026;-75
2021/09/27 08:03:20;;;;;;;29.70;15.60;;;20.00;99.90;;;;;;4974940;28;20030;-74
2021/09/27 08:05:46;;;;;;;22.20;14.13;;;20.20;99.90;;;;;;4974816;28;20041;-74
2021/09/27 08:08:12;;;;;;;23.55;15.40;;;20.20;99.90;;;;;;4973631;28;20039;-73
2021/09/27 08:10:39;;;;;;;22.67;13.88;;;20.10;99.90;;;;;;4974435;28;20272;-75
2021/09/27 08:13:06;;;;;;;21.95;14.85;;;20.20;99.90;;;;;;4974721;28;20445;-75
2021/09/27 08:15:35;;;;;;;21.25;14.25;;;20.30;99.90;;;;;;4975149;28;20350;-75
2021/09/27 08:18:04;;;;;;;24.88;14.68;;;20.40;99.90;;;;;;4973619;28;20082;-75
2021/09/27 08:20:32;;;;;;;;;;;20.40;99.90;;;;;;4975096;28;20027;-74
2021/09/27 08:22:57;;;;;;;25.52;16.35;;;20.60;99.90;;;;;;4974359;28;19952;-73
2021/09/27 08:25:24;;;;;;;23.02;14.70;;;20.70;99.90;;;;;;4971230;28;20051;-75
2021/09/27 08:27:51;;;;;;;22.88;13.80;;;20.80;99.90;;;;;;4955493;28;20031;-71
2021/09/27 08:30:25;;;;;;;20.42;13.68;;;20.90;99.90;;;;;;4972260;28;20123;-72
2021/09/27 08:32:51;;;;;;;25.35;13.45;;;20.80;99.90;;;;;;4973896;28;20346;-74
2021/09/27 08:35:17;;;;;;;17.35;12.35;;;20.80;99.90;;;;;;4973225;28;20503;-72
2021/09/27 08:37:44;;;;;;;19.08;12.85;;;20.90;99.90;;;;;;4973144;28;20039;-70
2021/09/27 08:40:39;;;;;;;23.92;13.95;;;20.80;99.90;;;;;;4974115;28;20023;-70
2021/09/27 08:43:46;;;;;;;21.83;14.07;;;21.00;99.90;;;;;;4972728;28;20126;-74
2021/09/27 08:46:26;;;;;;;17.17;12.27;;;21.10;99.90;;;;;;4972364;28;20346;-73
2021/09/27 08:49:15;;;;;;;19.40;12.68;;;21.20;99.90;;;;;;4973480;28;20283;-74
2021/09/27 08:51:41;;;;;;;20.00;13.55;;;21.30;99.90;;;;;;4973885;28;20070;-73
2021/09/27 08:54:13;;;;;;;20.85;13.48;;;21.40;99.90;;;;;;4974073;28;20045;-72
2021/09/27 08:56:44;;;;;;;20.70;12.32;;;21.80;99.90;;;;;;4972775;28;20045;-73
2021/09/27 08:59:35;;;;;;;20.20;12.75;;;22.10;99.90;;;;;;4973674;28;20481;-72
2021/09/27 09:02:10;;;;;;;18.73;12.40;;;22.40;99.90;;;;;;4972612;28;20385;-74
2021/09/27 09:04:51;;;;;;;18.83;12.88;;;22.90;99.90;;;;;;4973725;28;20421;-77
2021/09/27 09:07:19;;;;;;;19.40;13.02;;;23.40;99.70;;;;;;4973512;28;20034;-73
2021/09/27 09:09:59;;;;;;;21.98;14.63;;;23.90;99.20;;;;;;4973916;28;20477;-75
2021/09/27 09:12:50;;;;;;;17.95;13.13;;;24.40;98.00;;;;;;4973633;28;20477;-73
2021/09/27 09:15:20;;;;;;;14.90;10.68;;;24.80;97.40;;;;;;4973203;28;20039;-75
2021/09/27 09:18:11;;;;;;;13.88;10.32;;;25.00;97.10;;;;;;4973294;28;20089;-73
2021/09/27 09:20:45;;;;;;;16.25;10.38;;;24.90;96.30;;;;;;4972857;28;20131;-73
2021/09/27 09:23:19;;;;;;;20.83;10.52;;;24.70;96.30;;;;;;4972138;28;20039;-74
2021/09/27 09:25:45;;;;;;;15.73;11.13;;;24.50;96.30;;;;;;4972205;28;20374;-73
2021/09/27 09:28:11;;;;;;;14.43;9.70;;;24.40;96.30;;;;;;4973394;28;20082;-74
2021/09/27 09:30:44;;;;;;;19.15;10.90;;;24.70;96.00;;;;;;4973405;28;20102;-74
2021/09/27 09:33:44;;;;;;;12.52;9.25;;;25.10;95.70;;;;;;4973065;28;20055;-73
2021/09/27 09:36:21;;;;;;;13.63;9.60;;;25.20;95.00;;;;;;4973067;28;20027;-72
2021/09/27 09:38:48;;;;;;;16.58;10.57;;;25.40;95.10;;;;;;4972016;28;20034;-75
2021/09/27 09:41:15;;;;;;;15.25;10.10;;;25.30;94.70;;;;;;4972996;28;20042;-74
2021/09/27 09:43:45;;;;;;;13.10;10.07;;;25.20;94.60;;;;;;4972920;28;20030;-75
2021/09/27 09:46:34;;;;;;;12.60;9.27;;;25.20;94.50;;;;;;4972955;28;20461;-73
2021/09/27 09:49:12;;;;;;;16.58;11.52;;;25.90;94.30;;;;;;4973413;28;20042;-74
2021/09/27 09:51:45;;;;;;;17.40;10.30;;;26.90;93.10;;;;;;4973093;28;20049;-73
2021/09/27 09:54:23;;;;;;;12.63;9.68;;;27.10;92.90;;;;;;4972814;28;20082;-73
2021/09/27 09:56:58;;;;;;;11.32;8.57;;;26.80;92.00;;;;;;4971524;28;20438;-74
2021/09/27 09:59:29;;;;;;;13.93;8.38;;;26.70;92.20;;;;;;4972661;28;20110;-74
2021/09/27 10:01:57;;;;;;;13.05;8.77;;;26.50;92.10;;;;;;4972770;28;20065;-72
2021/09/27 10:04:34;;;;;;;12.35;9.23;;;26.40;92.30;;;;;;4972503;28;20081;-74
2021/09/27 10:07:12;;;;;;;14.63;9.43;;;26.20;92.40;;;;;;4972705;28;20066;-73
2021/09/27 10:09:58;;;;;;;11.93;8.07;;;26.00;92.10;;;;;;4972460;28;20051;-74
2021/09/27 10:12:42;;;;;;;10.98;8.10;;;25.90;92.80;;;;;;4971482;28;20341;-73
2021/09/27 10:15:14;;;;;;;15.02;10.45;;;25.20;92.90;;;;;;4972674;28;20453;-74
2021/09/27 10:17:39;;;;;;;15.85;9.00;;;25.20;93.80;;;;;;4972336;28;20338;-73
2021/09/27 10:20:17;;;;;;;12.75;8.15;;;25.90;93.40;;;;;;4972501;28;20046;-72
2021/09/27 10:22:59;;;;;;;11.88;7.72;;;26.60;91.90;;;;;;4972294;28;20058;-72
2021/09/27 10:25:47;;;;;;;10.63;6.97;;;26.60;91.60;;;;;;4972064;28;20054;-73
2021/09/27 10:28:17;;;;;;;8.80;6.70;;;27.30;91.40;;;;;;4972312;28;20082;-73
2021/09/27 10:30:54;;;;;;;11.18;7.03;;;27.30;90.30;;;;;;4972483;28;20473;-74
2021/09/27 10:33:27;;;;;;;11.02;6.93;;;27.40;89.90;;;;;;4972147;28;20053;-75
2021/09/27 10:36:04;;;;;;;9.32;7.15;;;26.70;90.20;;;;;;4972165;28;20037;-72
2021/09/27 10:38:40;;;;;;;10.52;7.22;;;26.20;90.50;;;;;;4972249;28;20166;-71
2021/09/27 10:41:48;;;;;;;8.50;6.32;;;26.00;90.90;;;;;;4972075;28;20368;-74
2021/09/27 10:44:21;;;;;;;9.13;5.60;;;25.90;90.90;;;;;;4971293;28;20038;-75
2021/09/27 10:46:51;;;;;;;9.05;6.38;;;26.00;91.00;;;;;;4972128;28;20060;-75
2021/09/27 10:49:29;;;;;;;9.65;5.78;;;26.20;91.20;;;;;;4970897;28;20148;-74
2021/09/27 10:52:08;;;;;;;14.52;8.45;;;26.10;90.90;;;;;;4971502;28;20058;-74
2021/09/27 10:54:56;;;;;;;10.82;6.10;;;26.00;90.70;;;;;;4972572;28;20061;-75
2021/09/27 10:57:25;;;;;;;6.47;5.38;;;26.00;90.30;;;;;;4961936;28;20039;-75
2021/09/27 10:59:59;;;;;;;10.98;5.47;;;26.10;89.40;;;;;;4970766;28;20034;-75
2021/09/27 11:02:42;;;;;;;11.48;5.80;;;26.10;88.70;;;;;;4972045;28;20035;-78
2021/09/27 11:05:42;;;;;;;11.27;6.65;;;26.20;88.20;;;;;;4971962;28;20031;-77
2021/09/27 11:08:12;;;;;;;9.40;7.10;;;26.90;88.70;;;;;;4971914;28;20031;-74
2021/09/27 11:10:43;;;;;;;10.82;5.45;;;27.50;86.50;;;;;;4971463;28;20142;-74
2021/09/27 11:13:31;;;;;;;8.30;5.90;;;28.10;85.10;;;;;;4971804;28;20027;-75
2021/09/27 11:15:58;;;;;;;;;;;28.30;83.70;;;;;;4972929;28;20019;-70
2021/09/27 11:18:29;;;;;;;6.50;5.10;;;28.30;83.00;;;;;;4971989;28;19910;-72
2021/09/27 11:20:57;;;;;;;7.13;5.03;;;27.50;83.40;;;;;;4974466;28;20277;-70
2021/09/27 11:23:39;;;;;;;7.95;4.07;;;26.80;84.50;;;;;;4975622;28;20031;-73
2021/09/27 11:26:13;;;;;;;7.85;4.03;;;26.50;84.60;;;;;;4975728;28;20114;-73
2021/09/27 11:29:13;;;;;;;7.78;4.78;;;26.70;84.30;;;;;;4975513;28;20049;-72
2021/09/27 11:31:42;;;;;;;6.47;4.20;;;26.90;84.30;;;;;;4973905;28;20070;-72
2021/09/27 11:34:43;;;;;;;6.78;3.92;;;26.50;84.80;;;;;;4975436;28;20047;-71
2021/09/27 11:37:22;;;;;;;10.25;4.38;;;26.20;85.30;;;;;;4974234;28;20031;-72
2021/09/27 11:39:52;;;;;;;9.73;5.72;;;25.60;86.70;;;;;;4975859;28;20412;-73
2021/09/27 11:42:21;;;;;;;7.25;5.07;;;25.20;88.20;;;;;;4975188;28;20055;-71
2021/09/27 11:44:54;;;;;;;9.02;4.78;;;25.00;88.70;;;;;;4975392;28;20046;-72
2021/09/27 11:48:01;;;;;;;8.25;4.25;;;25.10;89.30;;;;;;4975055;28;20472;-71
2021/09/27 11:50:29;;;;;;;5.50;4.10;;;24.80;88.70;;;;;;4974658;28;20046;-72
2021/09/27 11:53:01;;;;;;;;;;;24.50;89.00;;;;;;4975740;28;20039;-72
2021/09/27 11:55:37;;;;;;;8.45;5.28;;;24.40;89.80;;;;;;4975180;28;19914;-72
2021/09/27 11:58:24;;;;;;;5.38;4.10;;;24.20;90.10;;;;;;4973850;28;20361;-72
2021/09/27 12:00:55;;;;;;;8.32;4.45;;;24.30;90.20;;;;;;4975495;28;20041;-72
2021/09/27 12:03:29;;;;;;;6.32;4.63;;;24.10;90.20;;;;;;4974722;28;20101;-72
2021/09/27 12:06:21;;;;;;;6.95;4.20;;;24.00;90.50;;;;;;4974834;28;20034;-71
2021/09/27 12:09:13;;;;;;;7.32;4.60;;;23.90;90.60;;;;;;4974521;28;20465;-71
2021/09/27 12:11:55;;;;;;;7.38;4.45;;;23.70;90.90;;;;;;4960322;28;20377;-71
2021/09/27 12:14:39;;;;;;;11.07;4.55;;;23.60;90.90;;;;;;4966104;28;20027;-72
2021/09/27 12:17:07;;;;;;;6.93;4.82;;;23.60;91.10;;;;;;4973264;28;20035;-71
2021/09/27 12:19:44;;;;;;;7.53;4.22;;;23.40;91.10;;;;;;4974555;28;20361;-72
2021/09/27 12:22:16;;;;;;;9.30;4.80;;;23.40;91.20;;;;;;4974461;28;20042;-73
2021/09/27 12:24:43;;;;;;;10.18;4.45;;;23.30;91.20;;;;;;4973781;28;20437;-72
2021/09/27 12:27:21;;;;;;;9.63;4.75;;;23.40;91.20;;;;;;4974465;28;20065;-72
2021/09/27 12:30:08;;;;;;;6.32;4.15;;;23.40;91.40;;;;;;4974493;28;20039;-73
2021/09/27 12:32:38;;;;;;;8.80;5.10;;;23.30;91.70;;;;;;4974089;28;20035;-72
2021/09/27 12:35:16;;;;;;;8.15;4.93;;;23.10;91.80;;;;;;4974231;28;20093;-71
2021/09/27 12:37:44;;;;;;;7.78;5.03;;;23.10;91.80;;;;;;4974036;28;20034;-71
2021/09/27 12:40:15;;;;;;;7.10;4.85;;;23.00;92.00;;;;;;4974052;28;20027;-72
2021/09/27 12:42:48;;;;;;;7.97;4.57;;;22.90;92.00;;;;;;4974559;28;20022;-71
2021/09/27 12:45:29;;;;;;;10.80;5.65;;;22.80;92.10;;;;;;4972956;28;20085;-73
2021/09/27 12:47:57;;;;;;;7.60;5.10;;;22.70;92.10;;;;;;4973105;28;20039;-72
2021/09/27 12:50:26;;;;;;;7.43;5.00;;;22.70;92.40;;;;;;4974037;28;20027;-71
2021/09/27 12:52:56;;;;;;;8.13;5.53;;;22.60;92.50;;;;;;4973678;28;20053;-72
2021/09/27 12:55:40;;;;;;;8.55;4.88;;;22.70;92.70;;;;;;4973901;28;20050;-71
2021/09/27 12:58:19;;;;;;;5.88;4.60;;;22.60;92.60;;;;;;4973740;28;20410;-72
2021/09/27 13:00:45;;;;;;;8.02;5.38;;;22.70;92.80;;;;;;4974242;28;20097;-72
2021/09/27 13:03:17;;;;;;;9.40;5.53;;;22.80;92.90;;;;;;4972500;28;20035;-72
2021/09/27 13:06:00;;;;;;;9.35;5.80;;;22.70;92.80;;;;;;4973945;28;20030;-71
2021/09/27 13:08:48;;;;;;;8.98;5.47;;;22.70;92.80;;;;;;4973553;28;20114;-73
2021/09/27 13:11:36;;;;;;;8.68;5.95;;;22.80;92.60;;;;;;4973857;28;20042;-70
2021/09/27 13:14:24;;;;;;;13.70;5.80;;;22.70;92.50;;;;;;4973653;28;20090;-72
2021/09/27 13:16:52;;;;;;;;;;;22.80;92.70;;;;;;4970774;28;20022;-72
2021/09/27 13:19:47;;;;;;;10.07;6.45;;;22.80;92.70;;;;;;4982406;28;19964;-72
2021/09/27 13:22:15;;;;;;;8.30;6.32;;;22.60;92.80;;;;;;4973271;28;20031;-71